Relevés horaires Beauvechain (Belgique)


Relevés horaires à Beauvechain - Samedi 07 Juill. 2018
Heure UTC1 Température [°C] Vent [km/h] Hum. [%] Pres.4 [hPa] Visi. [Km] Nébu. [octa] Préc.5 [mm] Cond.
2m. Res. Ros. Dir.2 Vit. Moy. Raf.3
23:00 18.5 18.5 11.8 NNO 1.9 -- 3.7 65 1024(0.3/3h) 20 -- -- --
22:00 19.6 19.6 11.5 NNO 1.9 -- 1.9 59 1024(0.4/3h) 20 -- -- --
21:00 20.7 20.7 11.3 NNO 1.9 -- 9.3 55 1023.7(0.3/3h) 20 -- -- --
20:00 21.3 21.3 11.3 NE 3.7 -- 5.6 53 1023.5(0.0/3h) 20 -- -- --
19:00 23.3 23.3 11.4 NNE 3.7 -- 9.3 47 1023.3(-0.2/3h) 20 -- -- --
18:00 24.6 24.6 11.0 N 5.6 -- 14.8 42 1023.2(-0.5/3h) 20 -- -- --
17:00 25.4 25.4 10.6 N 5.6 -- 11.1 39 1023.2(-0.5/3h) 20 -- -- --
16:00 25.6 25.6 10.9 N 7.4 -- 14.8 40 1023.5(-0.2/3h) 20 -- -- --
15:00 26.1 26.1 10.5 N 7.4 -- 14.8 38 1023.7(-0.2/3h) 20 -- -- --
14:00 25.6 25.6 10.9 N 7.4 -- 13.0 40 1023.7(-0.3/3h) 20 -- -- --
13:00 26.1 26.1 10.8 N 7.4 -- 13.0 38 1023.7(-0.3/3h) 20 -- -- --
12:00 25.5 25.5 10.7 N 5.6 -- 13.0 39 1024(-0.1/3h) 20 -- -- --
11:00 25.1 25.1 10.5 N 3.7 -- 11.1 40 1024(0.1/3h) 17 -- -- --
10:00 23.8 23.8 11.6 NNE 3.7 -- 9.3 46 1024.2(0.4/3h) 20 -- -- --
09:00 22.5 22.5 12.4 NE 3.7 -- 9.3 53 1024.4(0.7/3h) 20 -- -- --
08:00 21.8 21.8 11.7 NE 3.7 -- 7.4 53 1024.2(0.8/3h) 20 -- -- --
07:00 19.5 19.5 12.5 NNO 1.9 -- 5.6 64 1024(1.0/3h) 19 -- -- --
06:00 17.3 17.3 13.2 NNO 1.9 -- 5.6 77 1023.8(0.9/3h) 11 -- -- --
05:00 15.4 15.4 13.9 NNO 1.9 -- 3.7 91 1023.6(0.6/3h) 4.7 -- -- Du brouillard ou du brouillard glacé (plus correctement designé sous le nom de brume) est observé et la visibilité n'est ni inférieure à 5/8 de mille ni supérieure à 6 milles
04:00 15.5 15.5 13.6 NNO 1.9 -- 3.7 88 1023.2(0.0/3h) 5 -- -- --
03:00 16.5 16.5 13.9 NNO 1.9 -- 5.6 85 1022.8(-0.2/3h) 7 -- -- --
02:00 16.9 16.9 13.8 NNO 1.9 -- 5.6 82 1022.8(0.0/3h) 11 -- -- --
01:00 17.6 17.6 13.7 NNO 1.9 -- 1.9 78 1023(0.3/3h) 17 -- -- --
00:00 18.0 18.0 13.7 NNO 1.9 -- 7.4 76 1023.1(0.5/3h) 17 -- -- --

1 Coordinated Universal Time. Actuellement il est 22:00 locale et 20:00 UTC.

2 Le vent souffle depuis la direction indiquée vers la direction oposée.

3 Les rafales max. sont disponible 40 min après l'heure du relevé.

4 Pour les stations d'altitude (plus de 600m) le géopotentiel du niveau le plus proche de la pression obligatoire est indiqué.

5 Les stations disposant d'un diffuseur peuvent indiquer "trace". Cela signifie que des précipitations ont touchés le sol mais que la quantité est inférieure à 0.1 mm.

Récapitulatif de la journée
Température [°C] Vent [km/h] Ensoleillement4 [h] Precipitations totale5 [mm] Pression [Hpa]
Min1 Max.2 Moy.3 Max. Min Max.
15.3 27.1 0 14.8 0 h 0 min 0 1022.8 1024.4

1 Température minimale relevée entre 18:00 UTC la veille et 18:00 UTC le jour donné.

2 Température maximale relevée entre 06:00 UTC le jour donné et 06:00 UTC le lendemain.

3 Vent moyen de la journée basé sur les relevés horaires.

4 Ensoleillement en heures relevé entre 06:00 UTC la veille et 06:00 UTC le jour donné.

5 Précipitations totales tombées entre 06:00 UTC la jour donné et 06:00 UTC le lendemain.

Graphiques horaires